South Bend, WA

1:42 PM PST on February 14, 2016 (GMT -0800)
Alta Vista Hill | | Change Station
CLOSE
Current Station
Personal Weather Station
Location: South Bend, WA
Elevation: 152 ft
Nearby Weather Stations

Elev 152 ft 46.66 °N, 123.79 °W | Updated 12 minutes ago

Overcast
Overcast
52.4 °F
Feels Like 52.4 °F
N
0.0
Wind Variable Wind from SW
Gusts 8.0 mph

Today
High -- | Low -- °F
--% Chance of Precip.
Yesterday
High -- | Low -- °F
Precip. -- in
Pressure 30.17 in
Visibility 1.0 miles
Clouds Overcast 300 ft
Dew Point 51 °F
Humidity 96%
Rainfall 0.77 in
Snow Depth Not available.
7:21 AM 5:38 PM
Waxing Crescent, 45% visible
SPECI KHQM 142121Z AUTO 22013KT 1SM BR OVC003 11/11 A3017 RMK AO2 T01060106
Pressure 30.17 in
Visibility 1.0 miles
Clouds Overcast 300 ft
Dew Point 51 °F
Humidity 96%
Rainfall 0.77 in
Snow Depth Not available.
7:21 AM 5:38 PM
Waxing Crescent, 45% visible
SPECI KHQM 142121Z AUTO 22013KT 1SM BR OVC003 11/11 A3017 RMK AO2 T01060106

10-Day Weather Forecast

Almanac

Astronomy

Feb. 14, 2016 Rise Set
Actual Time
Civil Twilight
Nautical Twilight
Astronomical Twilight
Moon
Length of Visible Light
Length of Day
Tomorrow will be .
, % of the Moon is Illuminated

Today's Extremes

State Highs State Lows

Community

WunderPhotos

Upload Photos

1,892,890 photos uploaded!

WunderBlog® & News

Nearby

Air Quality

  Air Quality AQ Index Pollutant
Not available.

Snow Depth

Station Depth Elevation

Earthquake Activity

City Distance Mag. Time & Date
Minimum magnitude displayed is 2.5.

Coastal Water Temperatures

Place Temperature

Stations

Nearby Weather Stations

Station Location Temp. Windchill Dew Point Humidity Wind Precip. Elev Updated Type
                   

Watches & Warnings

There are currently no watches in effect.